sensor_id;sensor_type;location;lat;lon;timestamp;P1;durP1;ratioP1;P2;durP2;ratioP2
43042;SDS011;28667;50.758;6.096;2022-10-16T00:00:35;0.35;;;0.35;;
43042;SDS011;28667;50.758;6.096;2022-10-16T00:03:02;3.25;;;0.40;;
43042;SDS011;28667;50.758;6.096;2022-10-16T00:05:29;1.45;;;0.43;;
43042;SDS011;28667;50.758;6.096;2022-10-16T00:07:55;0.30;;;0.28;;
43042;SDS011;28667;50.758;6.096;2022-10-16T00:10:22;0.30;;;0.30;;
43042;SDS011;28667;50.758;6.096;2022-10-16T00:12:48;0.30;;;0.30;;
43042;SDS011;28667;50.758;6.096;2022-10-16T00:15:14;3.70;;;0.47;;
43042;SDS011;28667;50.758;6.096;2022-10-16T00:17:41;0.40;;;0.40;;
43042;SDS011;28667;50.758;6.096;2022-10-16T00:20:07;0.95;;;0.30;;
43042;SDS011;28667;50.758;6.096;2022-10-16T00:22:33;0.20;;;0.20;;
43042;SDS011;28667;50.758;6.096;2022-10-16T00:25:00;0.38;;;0.30;;
43042;SDS011;28667;50.758;6.096;2022-10-16T00:27:25;1.13;;;0.30;;
43042;SDS011;28667;50.758;6.096;2022-10-16T00:29:52;0.35;;;0.35;;
43042;SDS011;28667;50.758;6.096;2022-10-16T00:32:19;0.20;;;0.20;;
43042;SDS011;28667;50.758;6.096;2022-10-16T00:34:45;0.20;;;0.20;;
43042;SDS011;28667;50.758;6.096;2022-10-16T00:37:12;1.55;;;0.43;;
43042;SDS011;28667;50.758;6.096;2022-10-16T00:39:39;0.40;;;0.30;;
43042;SDS011;28667;50.758;6.096;2022-10-16T00:42:05;0.50;;;0.40;;
43042;SDS011;28667;50.758;6.096;2022-10-16T00:44:48;0.40;;;0.40;;
43042;SDS011;28667;50.758;6.096;2022-10-16T00:47:32;0.40;;;0.22;;
43042;SDS011;28667;50.758;6.096;2022-10-16T00:52:31;0.63;;;0.25;;
43042;SDS011;28667;50.758;6.096;2022-10-16T00:54:58;0.20;;;0.20;;
43042;SDS011;28667;50.758;6.096;2022-10-16T00:57:25;2.92;;;0.30;;
43042;SDS011;28667;50.758;6.096;2022-10-16T00:59:52;0.45;;;0.45;;
43042;SDS011;28667;50.758;6.096;2022-10-16T01:02:20;1.92;;;0.32;;
43042;SDS011;28667;50.758;6.096;2022-10-16T01:04:47;0.20;;;0.20;;
43042;SDS011;28667;50.758;6.096;2022-10-16T01:15:31;0.10;;;0.10;;
43042;SDS011;28667;50.758;6.096;2022-10-16T01:18:32;0.20;;;0.20;;
43042;SDS011;28667;50.758;6.096;2022-10-16T01:21:08;0.32;;;0.30;;
43042;SDS011;28667;50.758;6.096;2022-10-16T01:29:02;2.30;;;0.32;;
43042;SDS011;28667;50.758;6.096;2022-10-16T01:31:36;0.30;;;0.30;;
43042;SDS011;28667;50.758;6.096;2022-10-16T01:34:08;0.35;;;0.30;;
43042;SDS011;28667;50.758;6.096;2022-10-16T01:36:46;0.20;;;0.10;;
43042;SDS011;28667;50.758;6.096;2022-10-16T01:39:17;0.28;;;0.28;;
43042;SDS011;28667;50.758;6.096;2022-10-16T01:41:54;0.30;;;0.30;;
43042;SDS011;28667;50.758;6.096;2022-10-16T01:44:31;0.43;;;0.25;;
43042;SDS011;28667;50.758;6.096;2022-10-16T01:46:59;0.20;;;0.20;;
43042;SDS011;28667;50.758;6.096;2022-10-16T01:49:26;0.43;;;0.30;;
43042;SDS011;28667;50.758;6.096;2022-10-16T01:51:58;0.20;;;0.20;;
43042;SDS011;28667;50.758;6.096;2022-10-16T01:54:28;0.20;;;0.20;;
43042;SDS011;28667;50.758;6.096;2022-10-16T01:56:56;0.52;;;0.30;;
43042;SDS011;28667;50.758;6.096;2022-10-16T01:59:24;0.40;;;0.30;;
43042;SDS011;28667;50.758;6.096;2022-10-16T02:01:55;0.10;;;0.10;;
43042;SDS011;28667;50.758;6.096;2022-10-16T02:04:30;0.08;;;0.03;;
43042;SDS011;28667;50.758;6.096;2022-10-16T02:07:00;0.10;;;0.10;;
43042;SDS011;28667;50.758;6.096;2022-10-16T02:09:27;0.25;;;0.25;;
43042;SDS011;28667;50.758;6.096;2022-10-16T02:11:55;5.57;;;0.35;;
43042;SDS011;28667;50.758;6.096;2022-10-16T02:14:25;0.55;;;0.30;;
43042;SDS011;28667;50.758;6.096;2022-10-16T02:16:51;1.13;;;0.25;;
43042;SDS011;28667;50.758;6.096;2022-10-16T02:19:17;0.50;;;0.28;;
43042;SDS011;28667;50.758;6.096;2022-10-16T02:21:50;0.30;;;0.30;;
43042;SDS011;28667;50.758;6.096;2022-10-16T02:29:41;0.63;;;0.30;;
43042;SDS011;28667;50.758;6.096;2022-10-16T02:32:14;0.47;;;0.40;;
43042;SDS011;28667;50.758;6.096;2022-10-16T02:34:43;0.40;;;0.38;;
43042;SDS011;28667;50.758;6.096;2022-10-16T02:37:12;0.82;;;0.43;;
43042;SDS011;28667;50.758;6.096;2022-10-16T02:39:38;0.30;;;0.30;;
43042;SDS011;28667;50.758;6.096;2022-10-16T02:42:10;0.30;;;0.30;;
43042;SDS011;28667;50.758;6.096;2022-10-16T02:44:37;0.40;;;0.30;;
43042;SDS011;28667;50.758;6.096;2022-10-16T02:47:04;0.55;;;0.50;;
43042;SDS011;28667;50.758;6.096;2022-10-16T02:49:30;0.30;;;0.30;;
43042;SDS011;28667;50.758;6.096;2022-10-16T02:51:56;0.68;;;0.50;;
43042;SDS011;28667;50.758;6.096;2022-10-16T02:54:22;0.85;;;0.30;;
43042;SDS011;28667;50.758;6.096;2022-10-16T02:56:48;0.40;;;0.40;;
43042;SDS011;28667;50.758;6.096;2022-10-16T02:59:13;0.35;;;0.32;;
43042;SDS011;28667;50.758;6.096;2022-10-16T03:01:39;0.20;;;0.20;;
43042;SDS011;28667;50.758;6.096;2022-10-16T03:04:06;0.45;;;0.45;;
43042;SDS011;28667;50.758;6.096;2022-10-16T03:06:32;0.40;;;0.40;;
43042;SDS011;28667;50.758;6.096;2022-10-16T03:08:59;0.43;;;0.43;;
43042;SDS011;28667;50.758;6.096;2022-10-16T03:11:25;0.88;;;0.50;;
43042;SDS011;28667;50.758;6.096;2022-10-16T03:13:51;0.30;;;0.30;;
43042;SDS011;28667;50.758;6.096;2022-10-16T03:16:18;0.50;;;0.40;;
43042;SDS011;28667;50.758;6.096;2022-10-16T03:18:43;0.88;;;0.55;;
43042;SDS011;28667;50.758;6.096;2022-10-16T03:21:13;0.40;;;0.40;;
43042;SDS011;28667;50.758;6.096;2022-10-16T03:23:39;0.50;;;0.50;;
43042;SDS011;28667;50.758;6.096;2022-10-16T03:26:05;0.50;;;0.50;;
43042;SDS011;28667;50.758;6.096;2022-10-16T03:28:31;0.50;;;0.50;;
43042;SDS011;28667;50.758;6.096;2022-10-16T03:30:58;1.25;;;0.45;;
43042;SDS011;28667;50.758;6.096;2022-10-16T03:33:23;0.43;;;0.35;;
43042;SDS011;28667;50.758;6.096;2022-10-16T03:35:53;0.90;;;0.52;;
43042;SDS011;28667;50.758;6.096;2022-10-16T03:38:20;0.82;;;0.43;;
43042;SDS011;28667;50.758;6.096;2022-10-16T03:40:47;0.30;;;0.30;;
43042;SDS011;28667;50.758;6.096;2022-10-16T03:43:12;0.32;;;0.32;;
43042;SDS011;28667;50.758;6.096;2022-10-16T03:45:39;3.22;;;0.65;;
43042;SDS011;28667;50.758;6.096;2022-10-16T03:48:05;0.73;;;0.57;;
43042;SDS011;28667;50.758;6.096;2022-10-16T03:50:31;0.43;;;0.43;;
43042;SDS011;28667;50.758;6.096;2022-10-16T03:52:57;1.75;;;0.50;;
43042;SDS011;28667;50.758;6.096;2022-10-16T03:55:23;0.90;;;0.73;;
43042;SDS011;28667;50.758;6.096;2022-10-16T03:57:49;0.52;;;0.50;;
43042;SDS011;28667;50.758;6.096;2022-10-16T04:00:16;0.68;;;0.57;;
43042;SDS011;28667;50.758;6.096;2022-10-16T04:02:42;1.27;;;0.47;;
43042;SDS011;28667;50.758;6.096;2022-10-16T04:05:08;0.47;;;0.47;;
43042;SDS011;28667;50.758;6.096;2022-10-16T04:07:34;0.40;;;0.40;;
43042;SDS011;28667;50.758;6.096;2022-10-16T04:10:01;0.52;;;0.50;;
43042;SDS011;28667;50.758;6.096;2022-10-16T04:12:28;0.60;;;0.60;;
43042;SDS011;28667;50.758;6.096;2022-10-16T04:14:53;0.40;;;0.40;;
43042;SDS011;28667;50.758;6.096;2022-10-16T04:17:20;0.38;;;0.38;;
43042;SDS011;28667;50.758;6.096;2022-10-16T04:19:46;0.50;;;0.50;;
43042;SDS011;28667;50.758;6.096;2022-10-16T04:22:11;0.45;;;0.45;;
43042;SDS011;28667;50.758;6.096;2022-10-16T04:24:38;0.55;;;0.50;;
43042;SDS011;28667;50.758;6.096;2022-10-16T04:27:04;0.52;;;0.52;;
43042;SDS011;28667;50.758;6.096;2022-10-16T04:29:30;0.47;;;0.47;;
43042;SDS011;28667;50.758;6.096;2022-10-16T04:31:56;0.52;;;0.52;;
43042;SDS011;28667;50.758;6.096;2022-10-16T04:34:22;0.88;;;0.57;;
43042;SDS011;28667;50.758;6.096;2022-10-16T04:36:48;0.65;;;0.60;;
43042;SDS011;28667;50.758;6.096;2022-10-16T04:39:15;0.70;;;0.70;;
43042;SDS011;28667;50.758;6.096;2022-10-16T04:41:41;0.70;;;0.47;;
43042;SDS011;28667;50.758;6.096;2022-10-16T04:44:08;1.25;;;0.55;;
43042;SDS011;28667;50.758;6.096;2022-10-16T04:46:34;4.68;;;0.90;;
43042;SDS011;28667;50.758;6.096;2022-10-16T04:49:00;0.40;;;0.40;;
43042;SDS011;28667;50.758;6.096;2022-10-16T04:51:26;0.85;;;0.85;;
43042;SDS011;28667;50.758;6.096;2022-10-16T04:53:53;1.92;;;0.60;;
43042;SDS011;28667;50.758;6.096;2022-10-16T04:56:20;0.60;;;0.60;;
43042;SDS011;28667;50.758;6.096;2022-10-16T04:58:47;0.55;;;0.55;;
43042;SDS011;28667;50.758;6.096;2022-10-16T05:01:13;0.68;;;0.68;;
43042;SDS011;28667;50.758;6.096;2022-10-16T05:03:39;0.95;;;0.90;;
43042;SDS011;28667;50.758;6.096;2022-10-16T05:06:05;0.73;;;0.73;;
43042;SDS011;28667;50.758;6.096;2022-10-16T05:08:32;0.93;;;0.70;;
43042;SDS011;28667;50.758;6.096;2022-10-16T05:10:58;0.60;;;0.60;;
43042;SDS011;28667;50.758;6.096;2022-10-16T05:13:25;0.60;;;0.60;;
43042;SDS011;28667;50.758;6.096;2022-10-16T05:15:51;1.05;;;0.57;;
43042;SDS011;28667;50.758;6.096;2022-10-16T05:18:17;0.75;;;0.75;;
43042;SDS011;28667;50.758;6.096;2022-10-16T05:20:43;0.65;;;0.65;;
43042;SDS011;28667;50.758;6.096;2022-10-16T05:23:09;0.50;;;0.50;;
43042;SDS011;28667;50.758;6.096;2022-10-16T05:25:37;0.50;;;0.50;;
43042;SDS011;28667;50.758;6.096;2022-10-16T05:28:03;0.47;;;0.40;;
43042;SDS011;28667;50.758;6.096;2022-10-16T05:30:29;0.70;;;0.65;;
43042;SDS011;28667;50.758;6.096;2022-10-16T05:32:55;0.65;;;0.55;;
43042;SDS011;28667;50.758;6.096;2022-10-16T05:35:21;1.55;;;0.73;;
43042;SDS011;28667;50.758;6.096;2022-10-16T05:37:48;0.63;;;0.63;;
43042;SDS011;28667;50.758;6.096;2022-10-16T05:40:14;1.00;;;0.75;;
43042;SDS011;28667;50.758;6.096;2022-10-16T05:42:40;0.73;;;0.73;;
43042;SDS011;28667;50.758;6.096;2022-10-16T05:45:07;0.68;;;0.68;;
43042;SDS011;28667;50.758;6.096;2022-10-16T05:47:35;0.60;;;0.52;;
43042;SDS011;28667;50.758;6.096;2022-10-16T05:50:02;0.57;;;0.57;;
43042;SDS011;28667;50.758;6.096;2022-10-16T05:52:29;0.80;;;0.60;;
43042;SDS011;28667;50.758;6.096;2022-10-16T05:54:55;0.50;;;0.50;;
43042;SDS011;28667;50.758;6.096;2022-10-16T05:57:21;0.80;;;0.70;;
43042;SDS011;28667;50.758;6.096;2022-10-16T05:59:47;0.38;;;0.38;;
43042;SDS011;28667;50.758;6.096;2022-10-16T06:02:13;2.03;;;0.75;;
43042;SDS011;28667;50.758;6.096;2022-10-16T06:04:41;0.57;;;0.57;;
43042;SDS011;28667;50.758;6.096;2022-10-16T06:07:10;2.85;;;0.70;;
43042;SDS011;28667;50.758;6.096;2022-10-16T06:09:37;0.85;;;0.70;;
43042;SDS011;28667;50.758;6.096;2022-10-16T06:12:03;5.47;;;0.68;;
43042;SDS011;28667;50.758;6.096;2022-10-16T06:14:29;0.75;;;0.65;;
43042;SDS011;28667;50.758;6.096;2022-10-16T06:16:56;0.82;;;0.80;;
43042;SDS011;28667;50.758;6.096;2022-10-16T06:19:22;2.78;;;0.60;;
43042;SDS011;28667;50.758;6.096;2022-10-16T06:21:48;1.40;;;0.68;;
43042;SDS011;28667;50.758;6.096;2022-10-16T06:24:14;0.47;;;0.47;;
43042;SDS011;28667;50.758;6.096;2022-10-16T06:26:40;1.20;;;0.63;;
43042;SDS011;28667;50.758;6.096;2022-10-16T06:29:07;0.77;;;0.63;;
43042;SDS011;28667;50.758;6.096;2022-10-16T06:31:34;3.33;;;0.80;;
43042;SDS011;28667;50.758;6.096;2022-10-16T06:34:00;1.42;;;0.73;;
43042;SDS011;28667;50.758;6.096;2022-10-16T06:36:27;0.80;;;0.80;;
43042;SDS011;28667;50.758;6.096;2022-10-16T06:38:53;1.35;;;0.55;;
43042;SDS011;28667;50.758;6.096;2022-10-16T06:41:20;0.52;;;0.52;;
43042;SDS011;28667;50.758;6.096;2022-10-16T06:43:47;1.70;;;0.80;;
43042;SDS011;28667;50.758;6.096;2022-10-16T06:46:14;0.60;;;0.60;;
43042;SDS011;28667;50.758;6.096;2022-10-16T06:48:42;0.90;;;0.73;;
43042;SDS011;28667;50.758;6.096;2022-10-16T06:51:10;0.65;;;0.63;;
43042;SDS011;28667;50.758;6.096;2022-10-16T06:53:38;0.70;;;0.70;;
43042;SDS011;28667;50.758;6.096;2022-10-16T06:56:13;1.15;;;0.60;;
43042;SDS011;28667;50.758;6.096;2022-10-16T06:58:46;2.35;;;0.77;;
43042;SDS011;28667;50.758;6.096;2022-10-16T07:01:13;1.42;;;0.68;;
43042;SDS011;28667;50.758;6.096;2022-10-16T07:03:41;1.00;;;0.73;;
43042;SDS011;28667;50.758;6.096;2022-10-16T07:06:08;0.70;;;0.70;;
43042;SDS011;28667;50.758;6.096;2022-10-16T07:08:38;0.85;;;0.85;;
43042;SDS011;28667;50.758;6.096;2022-10-16T07:11:09;4.13;;;0.77;;
43042;SDS011;28667;50.758;6.096;2022-10-16T07:13:38;1.02;;;0.60;;
43042;SDS011;28667;50.758;6.096;2022-10-16T07:16:12;0.50;;;0.50;;
43042;SDS011;28667;50.758;6.096;2022-10-16T07:18:43;0.52;;;0.52;;
43042;SDS011;28667;50.758;6.096;2022-10-16T07:21:18;3.53;;;0.70;;
43042;SDS011;28667;50.758;6.096;2022-10-16T07:23:52;0.75;;;0.70;;
43042;SDS011;28667;50.758;6.096;2022-10-16T07:26:19;0.57;;;0.57;;
43042;SDS011;28667;50.758;6.096;2022-10-16T07:28:46;0.70;;;0.70;;
43042;SDS011;28667;50.758;6.096;2022-10-16T07:31:13;1.00;;;1.00;;
43042;SDS011;28667;50.758;6.096;2022-10-16T07:33:39;0.50;;;0.50;;
43042;SDS011;28667;50.758;6.096;2022-10-16T07:36:08;0.75;;;0.57;;
43042;SDS011;28667;50.758;6.096;2022-10-16T07:38:34;2.17;;;0.80;;
43042;SDS011;28667;50.758;6.096;2022-10-16T07:41:01;1.15;;;0.60;;
43042;SDS011;28667;50.758;6.096;2022-10-16T07:43:29;1.38;;;0.63;;
43042;SDS011;28667;50.758;6.096;2022-10-16T07:45:55;1.42;;;0.60;;
43042;SDS011;28667;50.758;6.096;2022-10-16T07:48:22;1.00;;;0.60;;
43042;SDS011;28667;50.758;6.096;2022-10-16T07:50:49;0.90;;;0.55;;
43042;SDS011;28667;50.758;6.096;2022-10-16T07:53:15;1.35;;;0.60;;
43042;SDS011;28667;50.758;6.096;2022-10-16T07:55:41;2.67;;;0.50;;
43042;SDS011;28667;50.758;6.096;2022-10-16T07:58:08;2.17;;;0.60;;
43042;SDS011;28667;50.758;6.096;2022-10-16T08:00:35;1.27;;;0.60;;
43042;SDS011;28667;50.758;6.096;2022-10-16T08:03:03;1.10;;;0.80;;
43042;SDS011;28667;50.758;6.096;2022-10-16T08:05:30;0.50;;;0.50;;
43042;SDS011;28667;50.758;6.096;2022-10-16T08:07:58;1.33;;;0.73;;
43042;SDS011;28667;50.758;6.096;2022-10-16T08:10:26;0.77;;;0.50;;
43042;SDS011;28667;50.758;6.096;2022-10-16T08:12:53;0.30;;;0.30;;
43042;SDS011;28667;50.758;6.096;2022-10-16T08:15:19;1.45;;;0.30;;
43042;SDS011;28667;50.758;6.096;2022-10-16T08:17:59;0.68;;;0.68;;
43042;SDS011;28667;50.758;6.096;2022-10-16T08:20:26;3.13;;;0.45;;
43042;SDS011;28667;50.758;6.096;2022-10-16T08:22:54;4.63;;;0.80;;
43042;SDS011;28667;50.758;6.096;2022-10-16T08:25:20;3.80;;;0.50;;
43042;SDS011;28667;50.758;6.096;2022-10-16T08:27:47;0.40;;;0.35;;
43042;SDS011;28667;50.758;6.096;2022-10-16T08:30:13;0.45;;;0.30;;
43042;SDS011;28667;50.758;6.096;2022-10-16T08:32:40;1.17;;;0.50;;
43042;SDS011;28667;50.758;6.096;2022-10-16T08:35:08;0.40;;;0.40;;
43042;SDS011;28667;50.758;6.096;2022-10-16T08:37:35;2.13;;;0.57;;
43042;SDS011;28667;50.758;6.096;2022-10-16T08:40:02;0.32;;;0.32;;
43042;SDS011;28667;50.758;6.096;2022-10-16T08:50:30;0.60;;;0.32;;
43042;SDS011;28667;50.758;6.096;2022-10-16T08:52:57;0.30;;;0.30;;
43042;SDS011;28667;50.758;6.096;2022-10-16T08:57:51;1.42;;;0.50;;
43042;SDS011;28667;50.758;6.096;2022-10-16T09:00:17;1.10;;;0.30;;
43042;SDS011;28667;50.758;6.096;2022-10-16T09:02:52;0.17;;;0.10;;
43042;SDS011;28667;50.758;6.096;2022-10-16T09:08:46;1.58;;;0.50;;
43042;SDS011;28667;50.758;6.096;2022-10-16T09:11:54;0.43;;;0.35;;
43042;SDS011;28667;50.758;6.096;2022-10-16T09:17:37;0.30;;;0.20;;
43042;SDS011;28667;50.758;6.096;2022-10-16T09:25:30;0.68;;;0.20;;
43042;SDS011;28667;50.758;6.096;2022-10-16T09:27:58;0.35;;;0.35;;
43042;SDS011;28667;50.758;6.096;2022-10-16T09:30:26;0.20;;;0.10;;
43042;SDS011;28667;50.758;6.096;2022-10-16T09:32:57;0.55;;;0.40;;
43042;SDS011;28667;50.758;6.096;2022-10-16T09:35:27;0.52;;;0.30;;
43042;SDS011;28667;50.758;6.096;2022-10-16T09:38:00;0.88;;;0.30;;
43042;SDS011;28667;50.758;6.096;2022-10-16T09:40:31;0.45;;;0.17;;
43042;SDS011;28667;50.758;6.096;2022-10-16T09:45:54;0.57;;;0.22;;
43042;SDS011;28667;50.758;6.096;2022-10-16T09:48:22;0.00;;;0.00;;
43042;SDS011;28667;50.758;6.096;2022-10-16T09:50:57;0.10;;;0.10;;
43042;SDS011;28667;50.758;6.096;2022-10-16T09:56:03;0.17;;;0.10;;
43042;SDS011;28667;50.758;6.096;2022-10-16T09:58:32;0.25;;;0.25;;
43042;SDS011;28667;50.758;6.096;2022-10-16T10:00:59;2.05;;;0.30;;
43042;SDS011;28667;50.758;6.096;2022-10-16T10:03:44;1.23;;;0.20;;
43042;SDS011;28667;50.758;6.096;2022-10-16T10:09:32;0.32;;;0.30;;
43042;SDS011;28667;50.758;6.096;2022-10-16T10:14:22;2.05;;;0.30;;
43042;SDS011;28667;50.758;6.096;2022-10-16T10:17:00;0.32;;;0.10;;
43042;SDS011;28667;50.758;6.096;2022-10-16T10:19:30;0.52;;;0.32;;
43042;SDS011;28667;50.758;6.096;2022-10-16T10:25:00;2.92;;;0.52;;
43042;SDS011;28667;50.758;6.096;2022-10-16T10:27:40;1.00;;;0.20;;
43042;SDS011;28667;50.758;6.096;2022-10-16T10:36:04;0.57;;;0.25;;
43042;SDS011;28667;50.758;6.096;2022-10-16T10:46:55;0.80;;;0.40;;
43042;SDS011;28667;50.758;6.096;2022-10-16T10:54:53;1.02;;;0.30;;
43042;SDS011;28667;50.758;6.096;2022-10-16T11:05:50;0.20;;;0.10;;
43042;SDS011;28667;50.758;6.096;2022-10-16T11:08:26;0.10;;;0.10;;
43042;SDS011;28667;50.758;6.096;2022-10-16T11:11:19;1.33;;;0.38;;
43042;SDS011;28667;50.758;6.096;2022-10-16T11:16:56;0.30;;;0.20;;
43042;SDS011;28667;50.758;6.096;2022-10-16T11:27:38;1.15;;;0.10;;
43042;SDS011;28667;50.758;6.096;2022-10-16T11:30:18;1.05;;;0.35;;
43042;SDS011;28667;50.758;6.096;2022-10-16T11:35:48;1.65;;;0.20;;
43042;SDS011;28667;50.758;6.096;2022-10-16T11:40:59;0.55;;;0.28;;
43042;SDS011;28667;50.758;6.096;2022-10-16T11:43:38;1.77;;;0.20;;
43042;SDS011;28667;50.758;6.096;2022-10-16T11:46:18;0.38;;;0.20;;
43042;SDS011;28667;50.758;6.096;2022-10-16T11:54:15;0.20;;;0.20;;
43042;SDS011;28667;50.758;6.096;2022-10-16T11:56:47;0.10;;;0.10;;
43042;SDS011;28667;50.758;6.096;2022-10-16T12:05:03;1.65;;;0.20;;
43042;SDS011;28667;50.758;6.096;2022-10-16T12:07:36;0.35;;;0.25;;
43042;SDS011;28667;50.758;6.096;2022-10-16T12:10:23;1.42;;;0.43;;
43042;SDS011;28667;50.758;6.096;2022-10-16T12:12:51;0.35;;;0.13;;
43042;SDS011;28667;50.758;6.096;2022-10-16T12:17:48;0.08;;;0.08;;
43042;SDS011;28667;50.758;6.096;2022-10-16T12:20:34;0.45;;;0.20;;
43042;SDS011;28667;50.758;6.096;2022-10-16T12:23:02;1.17;;;0.10;;
43042;SDS011;28667;50.758;6.096;2022-10-16T12:25:31;0.10;;;0.08;;
43042;SDS011;28667;50.758;6.096;2022-10-16T12:30:32;0.10;;;0.10;;
43042;SDS011;28667;50.758;6.096;2022-10-16T12:33:02;0.20;;;0.20;;
43042;SDS011;28667;50.758;6.096;2022-10-16T12:35:45;0.28;;;0.15;;
43042;SDS011;28667;50.758;6.096;2022-10-16T12:38:16;1.17;;;0.20;;
43042;SDS011;28667;50.758;6.096;2022-10-16T12:40:43;0.40;;;0.10;;
43042;SDS011;28667;50.758;6.096;2022-10-16T12:43:58;0.20;;;0.10;;
43042;SDS011;28667;50.758;6.096;2022-10-16T12:46:04;0.13;;;0.13;;
43042;SDS011;28667;50.758;6.096;2022-10-16T12:48:46;0.10;;;0.10;;
43042;SDS011;28667;50.758;6.096;2022-10-16T12:51:47;0.52;;;0.10;;
43042;SDS011;28667;50.758;6.096;2022-10-16T13:15:28;0.30;;;0.15;;
43042;SDS011;28667;50.758;6.096;2022-10-16T13:23:27;0.20;;;0.20;;
43042;SDS011;28667;50.758;6.096;2022-10-16T13:28:31;0.20;;;0.20;;
43042;SDS011;28667;50.758;6.096;2022-10-16T13:31:00;0.17;;;0.17;;
43042;SDS011;28667;50.758;6.096;2022-10-16T13:33:32;0.75;;;0.17;;
43042;SDS011;28667;50.758;6.096;2022-10-16T13:36:01;2.75;;;0.10;;
43042;SDS011;28667;50.758;6.096;2022-10-16T13:38:30;1.33;;;0.52;;
43042;SDS011;28667;50.758;6.096;2022-10-16T13:40:58;0.20;;;0.20;;
43042;SDS011;28667;50.758;6.096;2022-10-16T13:45:53;0.10;;;0.10;;
43042;SDS011;28667;50.758;6.096;2022-10-16T13:48:20;0.10;;;0.00;;
43042;SDS011;28667;50.758;6.096;2022-10-16T13:50:46;0.43;;;0.20;;
43042;SDS011;28667;50.758;6.096;2022-10-16T13:53:23;0.10;;;0.10;;
43042;SDS011;28667;50.758;6.096;2022-10-16T13:55:49;0.68;;;0.20;;
43042;SDS011;28667;50.758;6.096;2022-10-16T13:58:16;1.45;;;0.20;;
43042;SDS011;28667;50.758;6.096;2022-10-16T14:03:29;0.10;;;0.10;;
43042;SDS011;28667;50.758;6.096;2022-10-16T14:06:00;3.47;;;0.20;;
43042;SDS011;28667;50.758;6.096;2022-10-16T14:08:29;0.30;;;0.20;;
43042;SDS011;28667;50.758;6.096;2022-10-16T14:10:57;0.25;;;0.10;;
43042;SDS011;28667;50.758;6.096;2022-10-16T14:16:16;0.30;;;0.10;;
43042;SDS011;28667;50.758;6.096;2022-10-16T14:21:32;0.10;;;0.10;;
43042;SDS011;28667;50.758;6.096;2022-10-16T14:23:59;0.20;;;0.15;;
43042;SDS011;28667;50.758;6.096;2022-10-16T14:26:47;0.13;;;0.10;;
43042;SDS011;28667;50.758;6.096;2022-10-16T14:29:17;0.10;;;0.10;;
43042;SDS011;28667;50.758;6.096;2022-10-16T14:34:52;0.20;;;0.10;;
43042;SDS011;28667;50.758;6.096;2022-10-16T14:37:26;2.08;;;0.20;;
43042;SDS011;28667;50.758;6.096;2022-10-16T14:39:54;0.20;;;0.20;;
43042;SDS011;28667;50.758;6.096;2022-10-16T14:42:21;0.20;;;0.17;;
43042;SDS011;28667;50.758;6.096;2022-10-16T14:44:50;0.25;;;0.25;;
43042;SDS011;28667;50.758;6.096;2022-10-16T14:47:19;0.50;;;0.20;;
43042;SDS011;28667;50.758;6.096;2022-10-16T14:49:50;0.50;;;0.20;;
43042;SDS011;28667;50.758;6.096;2022-10-16T14:52:18;0.75;;;0.10;;
43042;SDS011;28667;50.758;6.096;2022-10-16T14:54:48;0.20;;;0.10;;
43042;SDS011;28667;50.758;6.096;2022-10-16T14:57:18;0.25;;;0.17;;
43042;SDS011;28667;50.758;6.096;2022-10-16T14:59:46;0.30;;;0.20;;
43042;SDS011;28667;50.758;6.096;2022-10-16T15:02:18;0.45;;;0.30;;
43042;SDS011;28667;50.758;6.096;2022-10-16T15:04:46;2.67;;;0.50;;
43042;SDS011;28667;50.758;6.096;2022-10-16T15:07:12;1.13;;;0.60;;
43042;SDS011;28667;50.758;6.096;2022-10-16T15:09:39;3.78;;;2.30;;
43042;SDS011;28667;50.758;6.096;2022-10-16T15:12:05;4.53;;;2.17;;
43042;SDS011;28667;50.758;6.096;2022-10-16T15:14:31;7.28;;;2.33;;
43042;SDS011;28667;50.758;6.096;2022-10-16T15:16:57;5.32;;;2.70;;
43042;SDS011;28667;50.758;6.096;2022-10-16T15:19:23;4.78;;;2.08;;
43042;SDS011;28667;50.758;6.096;2022-10-16T15:21:49;3.65;;;1.50;;
43042;SDS011;28667;50.758;6.096;2022-10-16T15:24:16;2.90;;;1.10;;
43042;SDS011;28667;50.758;6.096;2022-10-16T15:26:42;1.70;;;1.10;;
43042;SDS011;28667;50.758;6.096;2022-10-16T15:29:08;2.00;;;1.13;;
43042;SDS011;28667;50.758;6.096;2022-10-16T15:31:34;1.05;;;0.70;;
43042;SDS011;28667;50.758;6.096;2022-10-16T15:34:01;1.98;;;0.90;;
43042;SDS011;28667;50.758;6.096;2022-10-16T15:36:33;0.60;;;0.57;;
43042;SDS011;28667;50.758;6.096;2022-10-16T15:39:03;0.77;;;0.45;;
43042;SDS011;28667;50.758;6.096;2022-10-16T15:41:29;0.90;;;0.50;;
43042;SDS011;28667;50.758;6.096;2022-10-16T15:43:56;0.98;;;0.65;;
43042;SDS011;28667;50.758;6.096;2022-10-16T15:46:22;1.20;;;0.40;;
43042;SDS011;28667;50.758;6.096;2022-10-16T15:48:50;0.90;;;0.40;;
43042;SDS011;28667;50.758;6.096;2022-10-16T15:51:20;0.65;;;0.50;;
43042;SDS011;28667;50.758;6.096;2022-10-16T15:53:46;0.65;;;0.50;;
43042;SDS011;28667;50.758;6.096;2022-10-16T15:56:13;0.47;;;0.47;;
43042;SDS011;28667;50.758;6.096;2022-10-16T15:58:40;1.30;;;0.63;;
43042;SDS011;28667;50.758;6.096;2022-10-16T16:01:06;0.45;;;0.40;;
43042;SDS011;28667;50.758;6.096;2022-10-16T16:03:34;0.43;;;0.43;;
43042;SDS011;28667;50.758;6.096;2022-10-16T16:06:04;0.57;;;0.50;;
43042;SDS011;28667;50.758;6.096;2022-10-16T16:08:36;0.30;;;0.20;;
43042;SDS011;28667;50.758;6.096;2022-10-16T16:11:09;0.40;;;0.35;;
43042;SDS011;28667;50.758;6.096;2022-10-16T16:13:37;0.55;;;0.32;;
43042;SDS011;28667;50.758;6.096;2022-10-16T16:16:07;0.45;;;0.30;;
43042;SDS011;28667;50.758;6.096;2022-10-16T16:18:35;0.50;;;0.40;;
43042;SDS011;28667;50.758;6.096;2022-10-16T16:21:02;1.45;;;0.35;;
43042;SDS011;28667;50.758;6.096;2022-10-16T16:23:28;0.30;;;0.30;;
43042;SDS011;28667;50.758;6.096;2022-10-16T16:28:39;0.50;;;0.40;;
43042;SDS011;28667;50.758;6.096;2022-10-16T16:31:06;0.25;;;0.25;;
43042;SDS011;28667;50.758;6.096;2022-10-16T16:33:32;1.17;;;0.40;;
43042;SDS011;28667;50.758;6.096;2022-10-16T16:36:00;0.60;;;0.35;;
43042;SDS011;28667;50.758;6.096;2022-10-16T16:38:27;0.60;;;0.30;;
43042;SDS011;28667;50.758;6.096;2022-10-16T16:40:53;0.35;;;0.35;;
43042;SDS011;28667;50.758;6.096;2022-10-16T16:43:24;0.20;;;0.20;;
43042;SDS011;28667;50.758;6.096;2022-10-16T16:45:51;0.30;;;0.30;;
43042;SDS011;28667;50.758;6.096;2022-10-16T16:48:17;0.38;;;0.28;;
43042;SDS011;28667;50.758;6.096;2022-10-16T16:50:44;0.38;;;0.38;;
43042;SDS011;28667;50.758;6.096;2022-10-16T16:53:10;0.70;;;0.57;;
43042;SDS011;28667;50.758;6.096;2022-10-16T16:55:36;0.63;;;0.52;;
43042;SDS011;28667;50.758;6.096;2022-10-16T16:58:02;0.98;;;0.98;;
43042;SDS011;28667;50.758;6.096;2022-10-16T17:00:29;0.80;;;0.80;;
43042;SDS011;28667;50.758;6.096;2022-10-16T17:02:56;0.65;;;0.65;;
43042;SDS011;28667;50.758;6.096;2022-10-16T17:05:22;0.93;;;0.80;;
43042;SDS011;28667;50.758;6.096;2022-10-16T17:07:48;0.73;;;0.60;;
43042;SDS011;28667;50.758;6.096;2022-10-16T17:10:15;0.55;;;0.55;;
43042;SDS011;28667;50.758;6.096;2022-10-16T17:12:41;0.98;;;0.80;;
43042;SDS011;28667;50.758;6.096;2022-10-16T17:15:07;3.13;;;0.80;;
43042;SDS011;28667;50.758;6.096;2022-10-16T17:17:33;0.80;;;0.70;;
43042;SDS011;28667;50.758;6.096;2022-10-16T17:19:59;0.70;;;0.70;;
43042;SDS011;28667;50.758;6.096;2022-10-16T17:22:26;0.88;;;0.77;;
43042;SDS011;28667;50.758;6.096;2022-10-16T17:24:52;0.90;;;0.70;;
43042;SDS011;28667;50.758;6.096;2022-10-16T17:27:19;0.95;;;0.75;;
43042;SDS011;28667;50.758;6.096;2022-10-16T17:29:49;1.42;;;1.08;;
43042;SDS011;28667;50.758;6.096;2022-10-16T17:32:16;0.73;;;0.70;;
43042;SDS011;28667;50.758;6.096;2022-10-16T17:34:45;0.85;;;0.85;;
43042;SDS011;28667;50.758;6.096;2022-10-16T17:37:11;2.65;;;1.50;;
43042;SDS011;28667;50.758;6.096;2022-10-16T17:39:37;6.38;;;2.90;;
43042;SDS011;28667;50.758;6.096;2022-10-16T17:42:03;4.72;;;2.58;;